Time;durP1;ratioP1;P1;durP2;ratioP2;P2;SDS_P1;SDS_P2;PMS_P1;PMS_P2;Temp;Humidity;BMP_temperature;BMP_pressure;BME280_temperature;BME280_humidity;BME280_pressure;Samples;Min_cycle;Max_cycle;Signal;HPM_P1;HPM_P2
2023/07/30 00:01:29;;;;;;;3.53;3.33;;;;;;;25.68;45.24;99146.94;5013272;28;20197;-74
2023/07/30 00:03:55;;;;;;;5.00;3.17;;;;;;;25.67;45.90;99159.72;5012686;28;20194;-74
2023/07/30 00:06:22;;;;;;;6.03;3.60;;;;;;;25.64;45.76;99148.63;5012476;28;20198;-73
2023/07/30 00:08:50;;;;;;;3.80;3.60;;;;;;;25.65;45.95;99147.53;5013145;28;20280;-73
2023/07/30 00:11:17;;;;;;;3.63;3.37;;;;;;;25.68;46.03;99149.66;5013016;28;20197;-73
2023/07/30 00:13:44;;;;;;;5.87;3.53;;;;;;;25.68;46.12;99144.22;5013190;28;20194;-73
2023/07/30 00:16:11;;;;;;;7.47;3.77;;;;;;;25.69;46.42;99143.09;5013080;28;20198;-73
2023/07/30 00:18:38;;;;;;;6.47;3.80;;;;;;;25.69;46.76;99145.81;5012202;28;20205;-73
2023/07/30 00:21:05;;;;;;;7.80;4.97;;;;;;;25.65;46.86;99144.81;5013075;28;20217;-73
2023/07/30 00:23:31;;;;;;;4.30;4.00;;;;;;;25.57;47.39;99153.66;5012701;28;20256;-73
2023/07/30 00:25:59;;;;;;;9.23;4.07;;;;;;;25.57;47.95;99150.94;5013069;28;20244;-73
2023/07/30 00:28:26;;;;;;;4.93;4.53;;;;;;;25.57;47.77;99148.22;5011868;28;20451;-73
2023/07/30 00:30:53;;;;;;;4.23;3.97;;;;;;;25.61;47.74;99149.22;5011849;28;20194;-73
2023/07/30 00:33:19;;;;;;;5.47;4.17;;;;;;;25.51;48.13;99144.00;5012540;28;20202;-73
2023/07/30 00:35:46;;;;;;;4.40;4.00;;;;;;;25.41;48.65;99144.19;5012582;28;20194;-72
2023/07/30 00:38:14;;;;;;;7.50;4.40;;;;;;;25.29;49.48;99146.56;5011906;28;20202;-73
2023/07/30 00:40:41;;;;;;;6.17;5.07;;;;;;;25.24;49.29;99149.38;5012274;28;20190;-72
2023/07/30 00:43:09;;;;;;;4.10;3.83;;;;;;;25.17;49.26;99143.50;5011414;28;20225;-73
2023/07/30 00:45:37;;;;;;;4.00;3.80;;;;;;;25.11;49.55;99134.63;5012313;28;20262;-72
2023/07/30 00:48:04;;;;;;;4.70;3.80;;;;;;;24.88;50.15;99146.47;5012217;28;20221;-72
2023/07/30 00:50:31;;;;;;;4.17;3.87;;;;;;;24.82;50.81;99134.03;5012335;28;20244;-72
2023/07/30 00:52:58;;;;;;;5.20;4.07;;;;;;;24.84;50.54;99142.72;5011472;28;20194;-72
2023/07/30 00:55:25;;;;;;;4.50;4.10;;;;;;;24.88;50.19;99141.81;5011835;28;20248;-73
2023/07/30 00:57:52;;;;;;;4.30;4.00;;;;;;;24.88;50.09;99141.81;5012519;28;20277;-73
2023/07/30 01:00:22;;;;;;;4.17;3.67;;;;;;;24.94;49.87;99143.34;5011539;28;20194;-73
2023/07/30 01:02:48;;;;;;;4.10;3.70;;;;;;;24.88;49.41;99144.53;5012187;28;20253;-72
2023/07/30 01:05:15;;;;;;;4.27;4.03;;;;;;;24.86;49.59;99148.66;5012221;28;20564;-73
2023/07/30 01:07:42;;;;;;;4.07;3.77;;;;;;;24.83;49.95;99152.78;5012249;28;20256;-71
2023/07/30 01:10:09;;;;;;;3.93;3.73;;;;;;;24.76;49.50;99146.94;5011995;28;20229;-73
2023/07/30 01:12:38;;;;;;;8.53;3.77;;;;;;;24.67;49.91;99151.41;5012440;28;20204;-73
2023/07/30 01:15:06;;;;;;;3.50;3.20;;;;;;;24.64;49.94;99149.28;5010998;28;20186;-74
2023/07/30 01:17:34;;;;;;;4.57;3.60;;;;;;;24.60;50.10;99153.69;5012048;28;20614;-73
2023/07/30 01:20:02;;;;;;;5.40;3.33;;;;;;;24.57;50.19;99156.97;5011859;28;20677;-73
2023/07/30 01:22:30;;;;;;;6.23;3.73;;;;;;;24.48;50.20;99147.06;5011692;28;20194;-72
2023/07/30 01:24:57;;;;;;;3.87;3.57;;;;;;;24.51;50.36;99141.03;5012190;28;20579;-73
2023/07/30 01:27:28;;;;;;;3.90;3.60;;;;;;;24.48;50.65;99152.50;5011346;28;20194;-72
2023/07/30 01:30:08;;;;;;;4.07;3.70;;;;;;;24.40;50.65;99139.56;5010917;28;20210;-73
2023/07/30 01:32:36;;;;;;;3.70;2.40;;;;;;;24.46;48.69;99150.06;5011795;28;20609;-71
2023/07/30 01:35:05;;;;;;;2.57;2.43;;;;;;;24.60;45.41;99155.56;5011782;28;20217;-71
2023/07/30 01:37:34;;;;;;;3.07;2.47;;;;;;;24.79;45.04;99159.91;5012123;28;20194;-71
2023/07/30 01:40:02;;;;;;;3.57;2.43;;;;;;;24.89;46.33;99169.81;5011833;28;20198;-71
2023/07/30 01:42:30;;;;;;;4.93;4.03;;;;;;;25.00;47.65;99161.19;5013497;28;20268;-72
2023/07/30 01:44:57;;;;;;;3.90;3.60;;;;;;;25.03;47.56;99148.91;5015750;28;20256;-72
2023/07/30 01:47:24;;;;;;;3.37;3.17;;;;;;;25.11;46.05;99161.03;5015480;28;20194;-72
2023/07/30 01:49:50;;;;;;;3.77;3.20;;;;;;;25.28;46.04;99164.00;5015447;28;20292;-72
2023/07/30 01:52:17;;;;;;;5.33;3.53;;;;;;;25.35;46.32;99167.94;5015868;28;20201;-72
2023/07/30 01:54:45;;;;;;;3.60;3.13;;;;;;;25.51;46.15;99166.56;5015596;28;20248;-72
2023/07/30 01:57:12;;;;;;;4.87;3.23;;;;;;;25.64;45.57;99175.84;5015362;28;20190;-72
2023/07/30 01:59:39;;;;;;;10.33;3.47;;;;;;;25.74;45.78;99170.19;5015183;28;20704;-72
2023/07/30 02:02:06;;;;;;;3.27;3.07;;;;;;;25.80;45.33;99163.56;5015576;28;20198;-72
2023/07/30 02:04:33;;;;;;;4.63;3.33;;;;;;;25.91;45.16;99164.94;5014887;28;20194;-72
2023/07/30 02:07:00;;;;;;;11.97;3.27;;;;;;;26.00;45.08;99168.63;5015204;28;20277;-73
2023/07/30 02:09:27;;;;;;;4.10;3.80;;;;;;;26.04;45.25;99164.19;5014841;28;20292;-73
2023/07/30 02:11:55;;;;;;;5.77;3.50;;;;;;;25.95;45.96;99172.25;5014883;28;20186;-72
2023/07/30 02:14:21;;;;;;;3.67;3.37;;;;;;;25.92;45.49;99169.28;5014850;28;20203;-69
2023/07/30 02:16:48;;;;;;;5.87;2.80;;;;;;;26.00;44.99;99165.91;5015268;28;20256;-69
2023/07/30 02:19:15;;;;;;;3.70;3.40;;;;;;;26.07;45.23;99174.44;5015226;28;20198;-70
2023/07/30 02:21:42;;;;;;;3.17;2.87;;;;;;;26.14;44.67;99161.22;5014408;28;20321;-70
2023/07/30 02:24:11;;;;;;;9.13;4.03;;;;;;;26.17;44.98;99169.59;5014836;28;20276;-70
2023/07/30 02:26:38;;;;;;;7.27;4.17;;;;;;;26.12;46.16;99166.16;5014751;28;20202;-72
2023/07/30 02:29:06;;;;;;;6.03;3.60;;;;;;;26.03;46.47;99173.44;5014294;28;20217;-70
2023/07/30 02:31:33;;;;;;;5.83;3.67;;;;;;;25.98;46.95;99170.81;5014606;28;20196;-71
2023/07/30 02:33:59;;;;;;;6.30;3.43;;;;;;;25.97;46.60;99180.09;5014659;28;20194;-70
2023/07/30 02:36:26;;;;;;;5.33;3.50;;;;;;;25.97;46.88;99180.91;5014383;28;20248;-71
2023/07/30 02:38:53;;;;;;;5.80;4.17;;;;;;;25.95;46.68;99179.59;5014734;28;20572;-71
2023/07/30 02:41:19;;;;;;;5.43;3.63;;;;;;;25.90;47.23;99180.47;5014681;28;20214;-71
2023/07/30 02:43:46;;;;;;;12.47;4.17;;;;;;;25.95;47.20;99187.75;5013812;28;20255;-71
2023/07/30 02:46:14;;;;;;;4.20;3.90;;;;;;;25.95;47.23;99180.41;5014689;28;20205;-70
2023/07/30 02:48:41;;;;;;;5.93;4.20;;;;;;;26.01;47.19;99194.72;5014079;28;20225;-71
2023/07/30 02:51:07;;;;;;;7.00;4.10;;;;;;;25.94;47.47;99191.59;5014230;28;20634;-70
2023/07/30 02:53:34;;;;;;;4.70;4.27;;;;;;;25.82;47.46;99193.97;5013179;28;20190;-70
2023/07/30 02:56:01;;;;;;;5.00;3.47;;;;;;;25.59;48.60;99189.56;5014490;28;20264;-71
2023/07/30 02:58:27;;;;;;;4.17;3.87;;;;;;;25.40;48.69;99192.34;5013415;28;20218;-71
2023/07/30 03:00:54;;;;;;;4.43;4.03;;;;;;;25.25;49.10;99189.03;5014167;28;20196;-71
2023/07/30 03:03:22;;;;;;;4.27;3.97;;;;;;;25.18;50.15;99200.31;5014364;28;20407;-71
2023/07/30 03:05:49;;;;;;;6.53;4.10;;;;;;;25.06;50.68;99199.97;5013866;28;20229;-71
2023/07/30 03:08:15;;;;;;;4.40;3.97;;;;;;;25.11;50.60;99197.16;5014392;28;20221;-71
2023/07/30 03:10:42;;;;;;;4.23;3.80;;;;;;;25.25;49.73;99205.34;5014373;28;20266;-72
2023/07/30 03:13:09;;;;;;;7.10;4.00;;;;;;;25.37;49.53;99203.81;5013985;28;20256;-71
2023/07/30 03:15:35;;;;;;;6.77;4.13;;;;;;;25.46;49.34;99209.34;5013009;28;20201;-71
2023/07/30 03:18:02;;;;;;;6.50;4.17;;;;;;;25.52;49.25;99205.44;5014210;28;20198;-71
2023/07/30 03:20:30;;;;;;;5.97;4.20;;;;;;;25.58;48.93;99215.13;5013882;28;20257;-71
2023/07/30 03:22:57;;;;;;;4.13;3.70;;;;;;;25.67;48.87;99213.31;5014112;28;20198;-71
2023/07/30 03:25:23;;;;;;;3.80;3.50;;;;;;;25.62;49.19;99213.41;5013695;28;20778;-71
2023/07/30 03:27:50;;;;;;;4.40;4.00;;;;;;;25.69;49.42;99205.66;5013829;28;20198;-72
2023/07/30 03:30:17;;;;;;;6.17;4.17;;;;;;;25.78;49.48;99212.84;5012226;28;20214;-71
2023/07/30 03:32:44;;;;;;;5.33;3.93;;;;;;;25.89;49.37;99210.72;5012869;28;20248;-72
2023/07/30 03:35:10;;;;;;;13.37;4.50;;;;;;;25.97;49.08;99215.50;5012966;28;20669;-72
2023/07/30 03:37:38;;;;;;;6.17;3.47;;;;;;;26.01;48.92;99217.28;5013264;28;20194;-72
2023/07/30 03:40:06;;;;;;;10.63;4.73;;;;;;;26.09;48.77;99215.78;5013905;28;20194;-72
2023/07/30 03:42:33;;;;;;;5.10;3.77;;;;;;;25.91;49.32;99222.09;5012677;28;20252;-71
2023/07/30 03:44:59;;;;;;;4.20;3.80;;;;;;;25.57;49.94;99213.50;5013614;28;20209;-71
2023/07/30 03:47:26;;;;;;;3.93;3.53;;;;;;;25.35;49.97;99211.44;5013627;28;20202;-70
2023/07/30 03:49:53;;;;;;;5.73;4.00;;;;;;;25.11;51.06;99207.22;5013690;28;20236;-71
2023/07/30 03:52:19;;;;;;;8.57;4.37;;;;;;;24.89;51.82;99214.09;5013608;28;20337;-70
2023/07/30 03:54:47;;;;;;;7.40;4.27;;;;;;;24.70;52.34;99218.72;5013619;28;20190;-71
2023/07/30 03:57:14;;;;;;;6.50;3.80;;;;;;;24.71;53.18;99220.34;5012365;28;20747;-72
2023/07/30 03:59:41;;;;;;;5.23;3.80;;;;;;;24.87;52.98;99221.72;5013507;28;20650;-72
2023/07/30 04:02:07;;;;;;;6.67;3.53;;;;;;;25.02;52.44;99224.22;5012928;28;20198;-70
2023/07/30 04:04:34;;;;;;;3.77;3.20;;;;;;;24.99;52.47;99232.94;5011874;28;20241;-70
2023/07/30 04:07:01;;;;;;;3.03;2.90;;;;;;;25.18;51.84;99232.13;5012463;28;20198;-70
2023/07/30 04:09:28;;;;;;;4.03;3.60;;;;;;;25.87;49.74;99231.97;5012755;28;20221;-70
2023/07/30 04:11:56;;;;;;;3.47;3.17;;;;;;;26.62;46.82;99228.53;5012538;28;20197;-71
2023/07/30 04:14:22;;;;;;;3.43;3.17;;;;;;;27.16;46.15;99230.28;5012724;28;20209;-70
2023/07/30 04:16:49;;;;;;;3.20;3.00;;;;;;;27.94;43.27;99235.91;5012804;28;20217;-70
2023/07/30 04:19:16;;;;;;;2.97;2.77;;;;;;;28.67;41.00;99246.91;5012708;28;20267;-71
2023/07/30 04:21:42;;;;;;;7.67;3.67;;;;;;;29.16;40.17;99246.47;5012656;28;20202;-69
2023/07/30 04:24:09;;;;;;;7.27;2.83;;;;;;;29.69;38.62;99260.56;5012541;28;20783;-70
2023/07/30 04:26:36;;;;;;;7.87;3.20;;;;;;;29.92;37.54;99256.44;5011232;28;20247;-71
2023/07/30 04:29:04;;;;;;;6.37;3.00;;;;;;;30.36;37.18;99258.69;5007905;28;20279;-67
2023/07/30 04:31:32;;;;;;;3.50;3.20;;;;;;;30.71;35.60;99259.31;5011858;28;20661;-73
2023/07/30 04:33:59;;;;;;;5.73;2.97;;;;;;;31.02;35.33;99256.97;5012511;28;20233;-74
2023/07/30 04:36:25;;;;;;;4.47;3.40;;;;;;;31.25;34.97;99263.75;5012751;28;20198;-73
2023/07/30 04:38:52;;;;;;;4.33;3.40;;;;;;;31.61;34.18;99270.16;5011850;28;20197;-72
2023/07/30 04:41:19;;;;;;;5.13;3.40;;;;;;;32.03;33.21;99263.41;5012429;28;20194;-70
2023/07/30 04:43:45;;;;;;;11.67;3.63;;;;;;;32.22;33.26;99274.63;5011521;28;20645;-69
2023/07/30 04:46:13;;;;;;;12.23;3.43;;;;;;;32.51;33.93;99277.19;5012269;28;20706;-69
2023/07/30 04:48:41;;;;;;;5.03;3.00;;;;;;;32.99;32.37;99268.88;5011476;28;20248;-70
2023/07/30 04:51:08;;;;;;;3.97;2.60;;;;;;;33.45;31.32;99258.41;5012391;28;20226;-69
2023/07/30 04:53:35;;;;;;;5.47;2.80;;;;;;;33.66;30.75;99269.97;5012382;28;20205;-69
2023/07/30 04:56:02;;;;;;;4.07;3.00;;;;;;;33.77;30.66;99265.56;5012148;28;20680;-70
2023/07/30 04:58:28;;;;;;;3.67;3.38;;;;;;;33.69;31.03;99263.78;5011020;28;20190;-69
2023/07/30 05:00:55;;;;;;;6.18;3.00;;;;;;;34.03;30.43;99263.94;5011551;28;20194;-69
2023/07/30 05:03:23;;;;;;;4.95;2.90;;;;;;;34.34;30.23;99263.13;5011592;28;20658;-69
2023/07/30 05:05:50;;;;;;;4.28;2.75;;;;;;;34.53;29.85;99263.97;5011961;28;20194;-69
2023/07/30 05:08:16;;;;;;;2.80;2.60;;;;;;;34.81;29.35;99264.66;5009708;28;20197;-70
2023/07/30 05:10:43;;;;;;;4.82;2.33;;;;;;;35.08;28.71;99263.69;5010897;28;20665;-70
2023/07/30 05:13:10;;;;;;;4.28;2.25;;;;;;;35.34;28.25;99268.56;5011348;28;20664;-69
2023/07/30 05:15:36;;;;;;;3.45;2.45;;;;;;;35.67;27.53;99272.38;5010811;28;20194;-69
2023/07/30 05:18:03;;;;;;;4.35;2.65;;;;;;;35.68;27.82;99267.66;5012058;28;20263;-69
2023/07/30 05:20:31;;;;;;;2.65;2.45;;;;;;;35.77;27.32;99254.41;5012252;28;20197;-70
2023/07/30 05:22:58;;;;;;;3.65;2.35;;;;;;;36.15;26.89;99276.41;5012119;28;20193;-70
2023/07/30 05:25:25;;;;;;;2.90;2.53;;;;;;;36.42;26.33;99275.31;5011895;28;20253;-73
2023/07/30 05:27:51;;;;;;;2.60;2.50;;;;;;;36.49;25.76;99278.16;5011634;28;20259;-69
2023/07/30 05:30:18;;;;;;;6.07;2.70;;;;;;;36.56;25.85;99275.50;5011771;28;20580;-69
2023/07/30 05:32:45;;;;;;;5.93;2.75;;;;;;;36.49;26.25;99275.41;5012080;28;20198;-69
2023/07/30 05:35:11;;;;;;;2.72;2.40;;;;;;;36.59;26.07;99280.31;5012063;28;20194;-69
2023/07/30 05:37:39;;;;;;;3.13;2.80;;;;;;;36.82;25.91;99278.28;5010896;28;20194;-69
2023/07/30 05:40:07;;;;;;;2.75;2.55;;;;;;;36.76;25.78;99274.25;5012085;28;20206;-69
2023/07/30 05:42:34;;;;;;;3.10;2.90;;;;;;;36.73;25.92;99280.53;5011643;28;20197;-70
2023/07/30 05:45:01;;;;;;;4.57;2.80;;;;;;;37.00;25.31;99276.56;5010724;28;20673;-70
2023/07/30 05:47:27;;;;;;;2.70;2.50;;;;;;;36.76;25.54;99279.81;5011583;28;20276;-70
2023/07/30 05:49:54;;;;;;;4.50;2.78;;;;;;;36.68;25.52;99281.69;5011920;28;20217;-70
2023/07/30 05:52:21;;;;;;;14.57;3.33;;;;;;;36.75;26.15;99272.66;5011497;28;20198;-69
2023/07/30 05:54:49;;;;;;;5.38;2.50;;;;;;;36.94;25.31;99280.84;5010814;28;20701;-69
2023/07/30 05:57:16;;;;;;;3.05;2.85;;;;;;;37.02;25.07;99282.53;5011752;28;20194;-70
2023/07/30 05:59:42;;;;;;;3.00;2.80;;;;;;;36.75;25.50;99283.75;5011519;28;20670;-70
2023/07/30 06:02:09;;;;;;;3.83;2.35;;;;;;;36.69;25.92;99288.81;5011720;28;20219;-70
2023/07/30 06:04:36;;;;;;;2.58;2.38;;;;;;;36.58;25.66;99275.97;5010814;28;20190;-69
2023/07/30 06:07:04;;;;;;;3.10;2.90;;;;;;;36.56;25.71;99275.50;5011541;28;20200;-70
2023/07/30 06:09:30;;;;;;;2.53;2.33;;;;;;;36.61;25.36;99272.41;5011382;28;20716;-70
2023/07/30 06:11:59;;;;;;;2.53;2.42;;;;;;;36.63;26.00;99275.63;5011479;28;20606;-70
2023/07/30 06:14:26;;;;;;;2.92;2.70;;;;;;;36.58;25.67;99273.97;5010569;28;20198;-69
2023/07/30 06:16:53;;;;;;;2.83;2.63;;;;;;;36.64;26.12;99277.22;5011791;28;20197;-70
2023/07/30 06:19:19;;;;;;;2.53;2.30;;;;;;;36.50;26.90;99271.47;5011188;28;20198;-70
2023/07/30 06:21:46;;;;;;;3.22;2.80;;;;;;;36.37;26.42;99267.31;5011755;28;20194;-69
2023/07/30 06:24:13;;;;;;;3.13;2.92;;;;;;;36.31;26.85;99271.56;5010731;28;20222;-70
2023/07/30 06:26:40;;;;;;;3.35;2.67;;;;;;;36.34;26.21;99268.84;5011674;28;20581;-70
2023/07/30 06:29:08;;;;;;;2.63;2.42;;;;;;;36.41;25.85;99262.63;5014918;28;20280;-70
2023/07/30 06:31:35;;;;;;;3.97;2.40;;;;;;;36.31;26.64;99266.03;5015002;28;20226;-70
2023/07/30 06:34:01;;;;;;;2.88;2.67;;;;;;;36.45;25.91;99263.47;5014304;28;20581;-70
2023/07/30 06:36:28;;;;;;;2.95;2.55;;;;;;;36.64;25.26;99266.97;5014952;28;20198;-71
2023/07/30 06:38:55;;;;;;;3.42;2.65;;;;;;;36.37;25.56;99259.00;5014981;28;20259;-70
2023/07/30 06:41:22;;;;;;;2.67;2.50;;;;;;;36.42;25.79;99264.25;5014358;28;20202;-71
2023/07/30 06:43:48;;;;;;;8.07;2.60;;;;;;;36.38;26.04;99263.38;5014717;28;20210;-71
2023/07/30 06:46:16;;;;;;;2.63;2.42;;;;;;;36.33;26.34;99255.38;5014426;28;20202;-71
2023/07/30 06:48:43;;;;;;;2.15;2.05;;;;;;;36.40;25.27;99255.50;5014858;28;20627;-71
2023/07/30 06:51:12;;;;;;;10.45;2.90;;;;;;;36.24;25.67;99263.16;5013896;28;20229;-71
2023/07/30 06:53:39;;;;;;;8.73;2.53;;;;;;;36.25;26.37;99242.63;5014426;28;20209;-69
2023/07/30 06:56:05;;;;;;;3.15;2.40;;;;;;;36.54;26.02;99250.19;5014433;28;20272;-70
2023/07/30 06:58:32;;;;;;;2.42;2.33;;;;;;;36.38;25.16;99244.00;5014350;28;20194;-70
2023/07/30 07:00:59;;;;;;;2.50;2.30;;;;;;;36.22;25.85;99238.59;5014523;28;20255;-71
2023/07/30 07:03:27;;;;;;;8.07;2.53;;;;;;;36.41;25.94;99229.41;5013488;28;20246;-70
2023/07/30 07:05:54;;;;;;;4.90;2.53;;;;;;;36.50;25.83;99224.44;5014306;28;20202;-71
2023/07/30 07:08:21;;;;;;;2.83;2.38;;;;;;;36.35;25.84;99231.72;5014227;28;20200;-71
2023/07/30 07:10:48;;;;;;;4.82;2.60;;;;;;;36.54;25.08;99226.06;5014271;28;20222;-70
2023/07/30 07:13:15;;;;;;;18.95;9.82;;;;;;;36.57;25.04;99233.63;5013380;28;20260;-70
2023/07/30 07:15:41;;;;;;;3.20;2.85;;;;;;;36.58;25.10;99224.13;5013890;28;20201;-71
2023/07/30 07:18:08;;;;;;;2.58;2.38;;;;;;;36.63;24.80;99231.34;5013649;28;20624;-70
2023/07/30 07:20:36;;;;;;;2.72;2.50;;;;;;;36.61;25.41;99222.59;5014026;28;20205;-70
2023/07/30 07:23:03;;;;;;;2.60;2.40;;;;;;;36.57;25.56;99213.44;5013145;28;20201;-70
2023/07/30 07:25:30;;;;;;;3.03;2.80;;;;;;;36.51;25.92;99220.47;5014119;28;20665;-72
2023/07/30 07:27:57;;;;;;;5.50;2.83;;;;;;;36.58;25.74;99212.28;5013540;28;20198;-72
2023/07/30 07:30:23;;;;;;;3.42;2.50;;;;;;;36.40;25.75;99223.09;5012371;28;20244;-71
2023/07/30 07:32:51;;;;;;;3.58;2.10;;;;;;;36.45;25.75;99213.66;5013013;28;20574;-70
2023/07/30 07:35:20;;;;;;;3.03;2.70;;;;;;;36.51;25.17;99212.19;5013677;28;20212;-70
2023/07/30 07:37:48;;;;;;;3.58;2.83;;;;;;;36.12;25.79;99216.28;5013996;28;20245;-70
2023/07/30 07:40:15;;;;;;;3.45;2.65;;;;;;;36.25;25.81;99214.97;5012055;28;20202;-71
2023/07/30 07:42:41;;;;;;;4.20;2.72;;;;;;;36.53;25.30;99215.34;5013678;28;20264;-70
2023/07/30 07:45:09;;;;;;;10.20;2.92;;;;;;;36.68;25.40;99201.38;5013185;28;20284;-71
2023/07/30 07:47:35;;;;;;;5.65;2.72;;;;;;;36.94;24.92;99208.81;5013209;28;20190;-70
2023/07/30 07:50:02;;;;;;;3.42;2.70;;;;;;;37.13;24.68;99211.44;5012312;28;20197;-71
2023/07/30 07:52:29;;;;;;;2.65;2.40;;;;;;;37.24;25.01;99201.31;5013205;28;20202;-71
2023/07/30 07:54:57;;;;;;;2.50;2.40;;;;;;;36.97;24.50;99208.06;5013297;28;20193;-72
2023/07/30 07:57:24;;;;;;;2.50;2.30;;;;;;;37.10;24.25;99201.09;5013056;28;20264;-70
2023/07/30 07:59:50;;;;;;;4.35;2.60;;;;;;;37.24;24.55;99202.09;5012403;28;20587;-70
2023/07/30 08:02:17;;;;;;;3.47;2.95;;;;;;;37.31;24.61;99201.34;5013172;28;20205;-70
2023/07/30 08:04:44;;;;;;;6.40;2.60;;;;;;;37.53;24.03;99200.41;5011835;28;20198;-70
2023/07/30 08:07:11;;;;;;;4.72;2.15;;;;;;;37.68;23.84;99204.94;5013053;28;20198;-72
2023/07/30 08:09:37;;;;;;;4.50;2.80;;;;;;;37.86;23.41;99197.59;5012441;28;20324;-72
2023/07/30 08:12:06;;;;;;;2.78;2.30;;;;;;;38.00;23.15;99194.91;5012720;28;20721;-71
2023/07/30 08:14:33;;;;;;;2.80;2.60;;;;;;;37.97;22.72;99187.38;5012680;28;20257;-71
2023/07/30 08:17:00;;;;;;;3.50;2.65;;;;;;;37.78;23.37;99187.59;5012681;28;20256;-71
2023/07/30 08:19:27;;;;;;;2.78;2.58;;;;;;;37.80;23.49;99182.47;5011827;28;20678;-71
2023/07/30 08:21:56;;;;;;;5.00;2.40;;;;;;;37.71;23.32;99184.75;5012654;28;20645;-72
2023/07/30 08:24:23;;;;;;;2.50;2.40;;;;;;;37.71;23.72;99184.75;5012773;28;20225;-70
2023/07/30 08:26:49;;;;;;;5.47;2.65;;;;;;;37.73;23.14;99179.66;5012565;28;20569;-71
2023/07/30 08:29:17;;;;;;;2.95;2.75;;;;;;;37.63;23.20;99180.34;5011512;28;20628;-71
2023/07/30 08:31:44;;;;;;;6.63;2.88;;;;;;;37.66;23.55;99173.22;5012446;28;20221;-71
2023/07/30 08:34:11;;;;;;;2.80;2.58;;;;;;;37.75;24.33;99166.19;5012168;28;20225;-72
2023/07/30 08:36:37;;;;;;;4.80;2.72;;;;;;;37.65;23.66;99166.91;5012446;28;20256;-70
2023/07/30 08:39:04;;;;;;;4.45;2.65;;;;;;;37.58;24.21;99155.69;5011574;28;20241;-71
2023/07/30 08:41:31;;;;;;;2.58;2.42;;;;;;;37.66;24.29;99151.84;5012328;28;20285;-71
2023/07/30 08:43:58;;;;;;;3.42;2.67;;;;;;;37.88;23.45;99148.03;5012449;28;20190;-71
2023/07/30 08:46:28;;;;;;;5.05;2.53;;;;;;;38.04;23.35;99133.94;5012306;28;20194;-71
2023/07/30 08:48:57;;;;;;;4.50;2.75;;;;;;;38.09;23.23;99142.69;5011314;28;20666;-72
2023/07/30 08:51:24;;;;;;;3.90;2.67;;;;;;;38.01;23.73;99135.47;5012260;28;20379;-72
2023/07/30 08:53:52;;;;;;;2.53;2.33;;;;;;;38.01;23.58;99129.94;5012353;28;20194;-72
2023/07/30 08:56:19;;;;;;;6.00;3.03;;;;;;;37.87;23.52;99129.81;5012056;28;20720;-72
2023/07/30 08:58:49;;;;;;;7.28;2.88;;;;;;;37.96;23.39;99124.72;5011308;28;20724;-72
2023/07/30 09:01:18;;;;;;;3.17;3.05;;;;;;;37.97;22.83;99122.75;5012240;28;20202;-72
2023/07/30 09:03:49;;;;;;;5.78;2.97;;;;;;;37.90;23.08;99123.50;5012109;28;20663;-72
2023/07/30 09:06:16;;;;;;;3.47;2.65;;;;;;;37.90;23.64;99123.50;5012151;28;20182;-72
2023/07/30 09:08:42;;;;;;;2.58;2.47;;;;;;;38.06;22.61;99115.72;5011433;28;20189;-71
2023/07/30 09:11:09;;;;;;;2.63;2.03;;;;;;;38.25;22.46;99117.41;5011705;28;20221;-72
2023/07/30 09:13:39;;;;;;;4.70;3.17;;;;;;;38.24;22.31;99113.84;5011944;28;20194;-71
2023/07/30 09:16:11;;;;;;;6.32;2.70;;;;;;;38.15;22.11;99112.59;5012067;28;20202;-71
2023/07/30 09:18:41;;;;;;;6.05;2.55;;;;;;;37.86;22.91;99088.59;5011322;28;20576;-71
2023/07/30 09:21:11;;;;;;;3.45;2.80;;;;;;;37.95;22.45;99098.19;5012172;28;20268;-71
2023/07/30 09:23:42;;;;;;;3.97;3.10;;;;;;;37.98;23.29;99091.84;5011926;28;20205;-71
2023/07/30 09:26:08;;;;;;;3.78;2.88;;;;;;;38.09;22.55;99097.50;5011636;28;20194;-71
2023/07/30 09:28:35;;;;;;;2.50;2.30;;;;;;;37.87;22.38;99090.19;5011068;28;20197;-72
2023/07/30 09:31:02;;;;;;;4.25;2.78;;;;;;;37.10;23.49;99084.72;5011501;28;20787;-71
2023/07/30 09:33:29;;;;;;;2.85;2.65;;;;;;;37.33;22.95;99082.63;5011915;28;20194;-71
2023/07/30 09:35:55;;;;;;;3.33;2.80;;;;;;;37.56;22.92;99080.44;5011575;28;20585;-71
2023/07/30 09:38:25;;;;;;;2.28;2.10;;;;;;;37.57;23.18;99070.94;5011508;28;20198;-71
2023/07/30 09:40:53;;;;;;;3.13;2.72;;;;;;;37.67;22.82;99075.78;5011655;28;20709;-71
2023/07/30 09:43:19;;;;;;;2.92;2.65;;;;;;;37.72;22.88;99067.09;5011688;28;20202;-71
2023/07/30 09:45:47;;;;;;;4.80;3.33;;;;;;;37.65;23.47;99052.41;5011931;28;20260;-71
2023/07/30 09:48:15;;;;;;;5.88;3.30;;;;;;;37.53;23.00;99055.44;5011190;28;20196;-71
2023/07/30 09:50:44;;;;;;;4.03;2.72;;;;;;;36.77;24.19;99059.84;5011518;28;20198;-71
2023/07/30 09:53:14;;;;;;;2.88;2.67;;;;;;;36.79;23.93;99041.69;5011610;28;20728;-71
2023/07/30 09:55:42;;;;;;;6.57;2.80;;;;;;;36.82;24.54;99035.38;5011139;28;20241;-71
2023/07/30 09:58:11;;;;;;;5.32;2.90;;;;;;;36.97;23.87;99039.09;5011996;28;20198;-71
2023/07/30 10:00:38;;;;;;;2.88;2.67;;;;;;;37.11;23.75;99030.94;5011474;28;20624;-71
2023/07/30 10:03:06;;;;;;;2.97;2.67;;;;;;;36.69;24.75;99033.25;5013554;28;20724;-70
2023/07/30 10:05:36;;;;;;;3.25;2.95;;;;;;;37.09;23.78;99033.28;5014802;28;20244;-71
2023/07/30 10:08:08;;;;;;;2.92;2.72;;;;;;;37.36;23.21;99031.97;5015405;28;20197;-71
2023/07/30 10:10:35;;;;;;;3.92;3.08;;;;;;;37.56;23.34;99019.44;5015175;28;20569;-72
2023/07/30 10:13:06;;;;;;;2.45;2.25;;;;;;;37.62;23.21;99029.00;5015067;28;20285;-72
2023/07/30 10:15:35;;;;;;;2.78;2.63;;;;;;;36.81;23.56;99016.38;5015082;28;20217;-71
2023/07/30 10:18:02;;;;;;;3.25;3.00;;;;;;;36.86;24.27;99013.25;5014874;28;20217;-73
2023/07/30 10:20:29;;;;;;;7.55;3.05;;;;;;;36.65;24.60;98999.19;5015265;28;20202;-74
2023/07/30 10:22:58;;;;;;;5.68;2.80;;;;;;;36.18;24.79;99001.78;5015040;28;20198;-75
2023/07/30 10:25:29;;;;;;;4.00;2.28;;;;;;;35.52;26.05;99009.94;5006660;28;20229;-76
2023/07/30 10:27:56;;;;;;;3.95;2.45;;;;;;;35.46;25.21;99005.88;5014285;28;20675;-78
2023/07/30 10:30:31;;;;;;;2.88;2.55;;;;;;;35.41;25.43;98997.91;5013171;28;20234;-79
2023/07/30 10:33:00;;;;;;;3.58;2.40;;;;;;;35.46;24.84;99000.34;5013405;28;20220;-77
2023/07/30 10:35:38;;;;;;;7.07;2.80;;;;;;;35.53;25.17;98990.22;5013399;28;20195;-72
2023/07/30 10:38:14;;;;;;;4.65;2.55;;;;;;;35.81;24.91;98987.84;5013570;28;20194;-70
2023/07/30 10:40:41;;;;;;;2.78;2.42;;;;;;;36.07;25.33;98982.28;5012707;28;20569;-70
2023/07/30 10:43:15;;;;;;;6.80;2.78;;;;;;;35.98;24.84;98978.22;5013953;28;20281;-70
2023/07/30 10:45:51;;;;;;;3.15;2.85;;;;;;;36.20;24.36;98977.28;5012113;28;20189;-70
2023/07/30 10:48:17;;;;;;;2.63;2.53;;;;;;;36.32;24.66;98977.06;5009520;28;20280;-71
2023/07/30 10:50:48;;;;;;;3.00;2.40;;;;;;;36.66;23.97;98971.13;5011888;28;20202;-71
2023/07/30 10:53:15;;;;;;;2.33;2.13;;;;;;;36.35;24.78;98976.31;5013520;28;20193;-71
2023/07/30 10:55:42;;;;;;;4.70;2.20;;;;;;;36.64;24.13;98972.69;5013288;28;21008;-71
2023/07/30 10:58:09;;;;;;;2.60;2.40;;;;;;;36.85;24.00;98979.25;5013467;28;20205;-72
2023/07/30 11:00:36;;;;;;;2.97;2.35;;;;;;;36.35;23.44;98976.31;5011894;28;20723;-72
2023/07/30 11:03:04;;;;;;;2.10;2.00;;;;;;;36.69;23.99;98964.84;5011739;28;20277;-74
2023/07/30 11:05:31;;;;;;;2.58;2.47;;;;;;;36.91;23.42;98963.09;5012752;28;20198;-73
2023/07/30 11:07:57;;;;;;;4.75;2.20;;;;;;;36.93;23.22;98963.47;5011115;28;20264;-72
2023/07/30 11:10:24;;;;;;;2.30;2.20;;;;;;;36.43;23.83;98958.63;5013037;28;20217;-73
2023/07/30 11:12:52;;;;;;;2.20;2.00;;;;;;;36.58;22.99;98957.59;5011140;28;20241;-71
2023/07/30 11:15:19;;;;;;;2.80;2.47;;;;;;;36.69;22.79;98955.75;5003471;28;20206;-72
2023/07/30 11:17:45;;;;;;;2.08;1.90;;;;;;;36.69;23.33;98944.66;5012124;28;20198;-70
2023/07/30 11:20:26;;;;;;;2.45;2.25;;;;;;;36.45;22.87;98950.72;5010928;28;20199;-72
2023/07/30 11:22:53;;;;;;;5.22;2.55;;;;;;;36.22;23.88;98947.31;5010691;28;20249;-73
2023/07/30 11:25:20;;;;;;;2.10;1.95;;;;;;;36.56;23.88;98943.34;5009211;28;20229;-73
2023/07/30 11:27:47;;;;;;;2.47;2.30;;;;;;;36.74;22.56;98944.31;5010100;28;20289;-74
2023/07/30 11:30:14;;;;;;;6.20;2.60;;;;;;;36.73;22.96;98938.00;5010730;28;20198;-76
2023/07/30 11:32:42;;;;;;;5.90;2.40;;;;;;;36.89;22.62;98927.47;5010214;28;20214;-73
2023/07/30 11:35:10;;;;;;;5.28;4.80;;;;;;;37.04;22.78;98923.59;5010327;28;20194;-75